createdAt,value
2019-04-23T00:00:37.558Z,13.80
2019-04-23T00:03:20.329Z,13.80
2019-04-23T00:06:28.147Z,13.70
2019-04-23T00:09:27.676Z,13.70
2019-04-23T00:12:38.463Z,13.60
2019-04-23T00:15:40.260Z,13.60
2019-04-23T00:18:42.300Z,13.60
2019-04-23T00:21:47.025Z,13.50
2019-04-23T00:28:02.580Z,13.40
2019-04-23T00:31:06.083Z,13.40
2019-04-23T00:34:02.229Z,13.30
2019-04-23T00:37:04.635Z,13.30
2019-04-23T00:40:05.708Z,13.20
2019-04-23T00:43:09.046Z,13.20
2019-04-23T00:46:06.590Z,13.20
2019-04-23T00:49:10.740Z,13.20
2019-04-23T00:52:14.481Z,13.10
2019-04-23T00:58:21.184Z,13.00
2019-04-23T01:01:17.986Z,13.00
2019-04-23T01:04:28.187Z,13.00
2019-04-23T01:07:24.296Z,12.90
2019-04-23T01:10:36.223Z,12.90
2019-04-23T01:13:39.429Z,12.90
2019-04-23T01:16:33.292Z,12.90
2019-04-23T01:19:39.946Z,12.90
2019-04-23T01:22:25.148Z,12.80
2019-04-23T01:25:41.770Z,12.80
2019-04-23T01:29:05.310Z,12.80
2019-04-23T01:31:59.734Z,12.80
2019-04-23T01:35:12.663Z,12.80
2019-04-23T01:38:04.483Z,12.80
2019-04-23T01:41:09.276Z,12.70
2019-04-23T01:44:14.351Z,12.70
2019-04-23T01:47:18.696Z,12.70
2019-04-23T01:53:24.439Z,12.60
2019-04-23T01:56:20.330Z,12.60
2019-04-23T02:02:26.467Z,12.50
2019-04-23T02:08:25.968Z,12.40
2019-04-23T02:11:37.441Z,12.40
2019-04-23T02:14:36.444Z,12.40
2019-04-23T02:17:38.712Z,12.30
2019-04-23T02:20:39.352Z,12.30
2019-04-23T02:23:44.347Z,12.20
2019-04-23T02:26:43.463Z,12.20
2019-04-23T02:30:15.617Z,12.20
2019-04-23T02:36:07.588Z,12.20
2019-04-23T02:42:22.320Z,12.10
2019-04-23T02:45:03.046Z,12.10
2019-04-23T02:51:10.741Z,12.00
2019-04-23T03:03:25.790Z,11.90
2019-04-23T03:06:19.181Z,11.90
2019-04-23T03:12:31.403Z,11.80
2019-04-23T03:28:25.274Z,11.70
2019-04-23T03:32:50.795Z,11.70
2019-04-23T03:34:15.161Z,11.70
2019-04-23T03:49:09.738Z,11.60
2019-04-23T03:52:24.991Z,11.60
2019-04-23T03:55:18.521Z,11.60
2019-04-23T03:58:38.757Z,11.60
2019-04-23T04:01:34.885Z,11.50
2019-04-23T04:07:47.006Z,11.50
2019-04-23T04:10:36.026Z,11.50
2019-04-23T04:16:36.181Z,11.50
2019-04-23T04:19:44.810Z,11.50
2019-04-23T04:22:54.475Z,11.50
2019-04-23T04:25:47.681Z,11.40
2019-04-23T04:28:48.480Z,11.40
2019-04-23T04:31:48.225Z,11.40
2019-04-23T04:35:12.723Z,11.40
2019-04-23T04:37:56.053Z,11.40
2019-04-23T04:40:55.290Z,11.40
2019-04-23T04:44:07.351Z,11.40
2019-04-23T04:46:58.752Z,11.40
2019-04-23T04:50:06.502Z,11.40
2019-04-23T04:56:18.904Z,11.40
2019-04-23T04:59:08.570Z,11.40
2019-04-23T05:02:20.906Z,11.40
2019-04-23T05:05:29.461Z,11.40
2019-04-23T05:08:13.958Z,11.50
2019-04-23T05:14:12.779Z,11.50
2019-04-23T05:17:27.976Z,11.50
2019-04-23T05:20:30.659Z,11.50
2019-04-23T05:23:51.087Z,11.50
2019-04-23T05:26:33.323Z,11.50
2019-04-23T05:29:48.581Z,11.50
2019-04-23T05:32:54.386Z,11.50
2019-04-23T05:42:04.197Z,11.50
2019-04-23T05:44:59.321Z,11.60
2019-04-23T05:48:09.814Z,11.60
2019-04-23T05:51:04.539Z,11.70
2019-04-23T05:57:01.700Z,11.80
2019-04-23T06:00:07.753Z,11.90
2019-04-23T06:03:11.992Z,11.90
2019-04-23T06:06:20.552Z,12.00
2019-04-23T06:09:14.007Z,12.10
2019-04-23T06:12:15.650Z,12.20
2019-04-23T06:15:20.790Z,12.20
2019-04-23T06:18:28.568Z,12.30
2019-04-23T06:21:26.665Z,12.40
2019-04-23T06:24:29.332Z,12.50
2019-04-23T06:27:27.672Z,12.50
2019-04-23T06:30:52.255Z,12.60
2019-04-23T06:33:32.625Z,12.60
2019-04-23T06:36:37.108Z,12.70
2019-04-23T06:42:49.348Z,12.80
2019-04-23T06:45:43.473Z,12.90
2019-04-23T06:48:47.242Z,13.00
2019-04-23T06:52:00.453Z,13.00
2019-04-23T06:55:09.112Z,13.10
2019-04-23T06:58:03.186Z,13.20
2019-04-23T07:01:01.986Z,13.30
2019-04-23T07:07:24.141Z,13.50
2019-04-23T07:10:03.961Z,13.60
2019-04-23T07:13:10.938Z,13.70
2019-04-23T07:16:12.180Z,13.80
2019-04-23T07:19:19.903Z,13.90
2019-04-23T07:22:16.023Z,14.00
2019-04-23T07:25:17.510Z,14.00
2019-04-23T07:28:27.780Z,14.10
2019-04-23T07:34:23.183Z,14.30
2019-04-23T07:37:22.809Z,14.40
2019-04-23T07:40:35.970Z,14.50
2019-04-23T07:43:50.756Z,14.60
2019-04-23T07:47:03.962Z,14.70
2019-04-23T07:50:00.777Z,14.70
2019-04-23T07:53:00.313Z,14.80
2019-04-23T07:59:00.540Z,14.90
2019-04-23T08:02:11.707Z,15.00
2019-04-23T08:05:07.706Z,15.10
2019-04-23T08:08:00.354Z,15.20
2019-04-23T08:14:23.738Z,15.50
2019-04-23T08:17:12.333Z,15.60
2019-04-23T08:20:23.076Z,15.80
2019-04-23T08:23:28.220Z,16.00
2019-04-23T08:29:27.580Z,16.20
2019-04-23T08:32:35.076Z,16.40
2019-04-23T08:38:44.686Z,16.60
2019-04-23T08:41:58.129Z,16.80
2019-04-23T08:45:03.457Z,17.00
2019-04-23T08:51:24.119Z,17.40
2019-04-23T08:54:32.217Z,17.50
2019-04-23T08:57:15.591Z,17.50
2019-04-23T09:00:14.077Z,17.60
2019-04-23T09:06:24.530Z,17.70
2019-04-23T09:09:27.878Z,17.80
2019-04-23T09:12:32.021Z,17.80
2019-04-23T09:15:38.943Z,18.00
2019-04-23T09:18:32.719Z,18.10
2019-04-23T09:21:34.520Z,18.30
2019-04-23T09:24:39.981Z,18.40
2019-04-23T09:27:45.245Z,18.50
2019-04-23T09:30:49.321Z,18.60
2019-04-23T09:33:51.988Z,18.70
2019-04-23T09:39:00.369Z,18.80
2019-04-23T09:42:19.492Z,18.80
2019-04-23T09:45:28.136Z,19.10
2019-04-23T09:48:33.320Z,19.10
2019-04-23T09:54:45.802Z,19.30
2019-04-23T09:57:36.051Z,19.30
2019-04-23T10:00:40.648Z,19.40
2019-04-23T10:03:33.951Z,19.50
2019-04-23T10:06:24.459Z,19.70
2019-04-23T10:09:22.746Z,19.80
2019-04-23T10:12:26.263Z,20.00
2019-04-23T10:15:33.005Z,20.00
2019-04-23T10:18:31.043Z,20.10
2019-04-23T10:21:33.309Z,20.20
2019-04-23T10:24:35.166Z,20.30
2019-04-23T10:27:39.046Z,20.30
2019-04-23T10:30:40.765Z,20.50
2019-04-23T10:33:42.202Z,20.70
2019-04-23T10:36:44.264Z,20.80
2019-04-23T10:39:52.749Z,21.00
2019-04-23T10:42:51.707Z,21.00
2019-04-23T10:46:13.621Z,21.30
2019-04-23T10:49:50.851Z,21.40
2019-04-23T10:52:33.748Z,21.50
2019-04-23T10:55:44.833Z,21.50
2019-04-23T10:58:38.374Z,21.50
2019-04-23T11:02:02.241Z,21.50
2019-04-23T11:07:47.206Z,21.50
2019-04-23T11:10:58.513Z,21.60
2019-04-23T11:14:00.223Z,21.60
2019-04-23T11:17:03.707Z,21.60
2019-04-23T11:20:15.046Z,21.60
2019-04-23T11:22:59.118Z,21.70
2019-04-23T11:26:17.337Z,21.70
2019-04-23T11:29:21.064Z,21.80
2019-04-23T11:44:52.168Z,22.30
2019-04-23T11:51:05.444Z,22.40
2019-04-23T11:53:54.594Z,22.40
2019-04-23T11:57:14.902Z,22.50
2019-04-23T11:59:53.386Z,22.50
2019-04-23T12:02:56.287Z,22.60
2019-04-23T12:06:25.514Z,22.50
2019-04-23T12:12:37.874Z,22.70
2019-04-23T12:15:32.054Z,22.70
2019-04-23T12:21:43.930Z,22.80
2019-04-23T12:27:33.454Z,22.80
2019-04-23T12:30:45.414Z,22.80
2019-04-23T12:33:53.626Z,22.80
2019-04-23T12:36:56.799Z,22.80
2019-04-23T12:40:03.032Z,22.80
2019-04-23T12:43:04.949Z,22.80
2019-04-23T12:45:50.391Z,22.80
2019-04-23T12:49:07.379Z,22.80
2019-04-23T12:52:04.981Z,22.70
2019-04-23T12:55:13.513Z,22.80
2019-04-23T12:58:12.926Z,22.80
2019-04-23T13:01:13.952Z,22.80
2019-04-23T13:04:22.198Z,22.90
2019-04-23T13:07:29.197Z,22.90
2019-04-23T13:10:22.219Z,22.90
2019-04-23T13:13:42.542Z,23.00
2019-04-23T13:16:25.436Z,22.90
2019-04-23T13:19:39.461Z,23.00
2019-04-23T13:22:37.431Z,23.00
2019-04-23T13:25:45.727Z,22.90
2019-04-23T13:31:35.847Z,22.80
2019-04-23T13:34:48.141Z,22.80
2019-04-23T13:37:54.534Z,22.70
2019-04-23T13:43:53.216Z,22.50
2019-04-23T13:46:55.855Z,22.60
2019-04-23T13:50:00.243Z,22.70
2019-04-23T13:53:18.005Z,22.70
2019-04-23T13:55:53.426Z,22.80
2019-04-23T13:59:09.366Z,22.80
2019-04-23T14:02:19.620Z,22.90
2019-04-23T14:06:24.491Z,22.90
2019-04-23T14:09:24.181Z,22.90
2019-04-23T14:12:20.416Z,22.90
2019-04-23T14:15:39.231Z,22.90
2019-04-23T14:18:51.510Z,22.80
2019-04-23T14:24:29.811Z,22.60
2019-04-23T14:30:40.777Z,22.60
2019-04-23T14:39:41.023Z,22.60
2019-04-23T14:46:27.090Z,22.60
2019-04-23T14:48:56.747Z,22.60
2019-04-23T14:52:04.739Z,22.60
2019-04-23T14:58:23.856Z,22.50
2019-04-23T15:01:25.033Z,22.50
2019-04-23T15:04:05.301Z,22.50
2019-04-23T15:07:21.229Z,22.50
2019-04-23T15:10:20.486Z,22.50
2019-04-23T15:13:16.810Z,22.50
2019-04-23T15:19:36.801Z,22.50
2019-04-23T15:22:32.806Z,22.50
2019-04-23T15:25:36.719Z,22.40
2019-04-23T15:28:08.953Z,22.40
2019-04-23T15:34:30.792Z,22.30
2019-04-23T15:40:41.805Z,22.20
2019-04-23T15:43:49.559Z,22.20
2019-04-23T15:46:47.462Z,22.20
2019-04-23T15:49:51.399Z,22.20
2019-04-23T15:55:59.471Z,22.10
2019-04-23T15:59:18.530Z,22.00
2019-04-23T16:01:41.246Z,22.00
2019-04-23T16:04:31.712Z,22.00
2019-04-23T16:07:51.960Z,21.90
2019-04-23T16:11:15.643Z,21.90
2019-04-23T16:17:15.367Z,21.80
2019-04-23T16:20:27.560Z,21.70
2019-04-23T16:23:18.059Z,21.60
2019-04-23T16:26:24.185Z,21.60
2019-04-23T16:29:36.963Z,21.60
2019-04-23T16:32:52.321Z,21.50
2019-04-23T16:38:45.347Z,21.40
2019-04-23T16:41:46.672Z,21.30
2019-04-23T16:47:52.222Z,21.20
2019-04-23T16:53:47.023Z,21.10
2019-04-23T16:57:12.384Z,21.10
2019-04-23T17:03:06.890Z,21.00
2019-04-23T17:06:06.797Z,20.90
2019-04-23T17:15:10.930Z,20.70
2019-04-23T17:18:11.950Z,20.60
2019-04-23T17:21:16.629Z,20.50
2019-04-23T17:24:21.247Z,20.40
2019-04-23T17:27:22.834Z,20.30
2019-04-23T17:30:22.412Z,20.30
2019-04-23T17:39:31.099Z,20.10
2019-04-23T17:42:39.305Z,20.00
2019-04-23T17:45:35.874Z,20.00
2019-04-23T17:48:44.168Z,19.90
2019-04-23T17:54:54.769Z,19.80
2019-04-23T17:58:03.908Z,19.70
2019-04-23T18:07:26.459Z,19.60
2019-04-23T18:10:24.671Z,19.50
2019-04-23T18:13:14.032Z,19.40
2019-04-23T18:16:30.670Z,19.40
2019-04-23T18:19:16.812Z,19.30
2019-04-23T18:22:22.124Z,19.20
2019-04-23T18:25:27.052Z,19.20
2019-04-23T18:28:30.198Z,19.00
2019-04-23T18:31:31.759Z,19.00
2019-04-23T18:34:53.891Z,18.80
2019-04-23T18:37:34.259Z,18.80
2019-04-23T18:41:02.362Z,18.70
2019-04-23T18:43:58.929Z,18.70
2019-04-23T18:46:49.058Z,18.60
2019-04-23T18:49:51.276Z,18.50
2019-04-23T18:56:05.664Z,18.40
2019-04-23T19:02:08.728Z,18.20
2019-04-23T19:16:25.187Z,17.90
2019-04-23T19:19:28.834Z,17.80
2019-04-23T19:25:28.099Z,17.50
2019-04-23T19:34:40.693Z,17.30
2019-04-23T19:37:55.905Z,17.30
2019-04-23T19:40:51.280Z,17.20
2019-04-23T19:43:55.639Z,17.20
2019-04-23T19:50:03.881Z,17.10
2019-04-23T19:53:13.982Z,17.10
2019-04-23T19:56:08.943Z,17.00
2019-04-23T19:59:01.853Z,16.90
2019-04-23T20:04:59.646Z,16.80
2019-04-23T20:08:13.244Z,16.80
2019-04-23T20:11:09.265Z,16.70
2019-04-23T20:14:11.291Z,16.70
2019-04-23T20:20:19.688Z,16.50
2019-04-23T20:23:26.543Z,16.40
2019-04-23T20:26:17.087Z,16.40
2019-04-23T20:29:57.683Z,16.30
2019-04-23T20:33:34.862Z,16.20
2019-04-23T20:35:53.998Z,16.10
2019-04-23T20:39:03.976Z,16.00
2019-04-23T20:42:10.988Z,16.00
2019-04-23T20:48:01.938Z,15.90
2019-04-23T20:50:56.337Z,15.80
2019-04-23T20:54:10.515Z,15.80
2019-04-23T20:57:24.956Z,15.80
2019-04-23T21:06:14.741Z,15.70
2019-04-23T21:09:31.168Z,15.60
2019-04-23T21:12:45.853Z,15.60
2019-04-23T21:15:33.524Z,15.60
2019-04-23T21:18:31.534Z,15.50
2019-04-23T21:21:40.293Z,15.50
2019-04-23T21:24:36.513Z,15.40
2019-04-23T21:27:44.976Z,15.40
2019-04-23T21:36:48.254Z,15.30
2019-04-23T21:40:28.087Z,15.30
2019-04-23T21:43:13.235Z,15.30
2019-04-23T21:46:20.463Z,15.20
2019-04-23T21:49:29.596Z,15.20
2019-04-23T21:52:20.849Z,15.20
2019-04-23T21:55:22.383Z,15.10
2019-04-23T21:58:26.060Z,15.10
2019-04-23T22:01:33.216Z,15.10
2019-04-23T22:07:38.884Z,15.00
2019-04-23T22:10:34.218Z,15.00
2019-04-23T22:13:51.652Z,14.90
2019-04-23T22:16:48.841Z,14.90
2019-04-23T22:19:38.685Z,14.90
2019-04-23T22:25:50.195Z,14.80
2019-04-23T22:28:57.778Z,14.80
2019-04-23T22:31:50.239Z,14.80
2019-04-23T22:34:56.022Z,14.80
2019-04-23T22:38:02.287Z,14.80
2019-04-23T22:40:56.141Z,14.80
2019-04-23T22:44:04.827Z,14.80
2019-04-23T22:56:12.179Z,14.80
2019-04-23T22:59:18.243Z,14.80
2019-04-23T23:02:21.613Z,14.80
2019-04-23T23:05:31.771Z,14.80
2019-04-23T23:08:22.453Z,14.80
2019-04-23T23:11:22.818Z,14.80
2019-04-23T23:14:27.957Z,14.80
2019-04-23T23:17:35.488Z,14.80
2019-04-23T23:20:36.653Z,14.70
2019-04-23T23:23:30.073Z,14.70
2019-04-23T23:26:48.304Z,14.70
2019-04-23T23:29:50.155Z,14.70
2019-04-23T23:32:49.106Z,14.60
2019-04-23T23:35:43.683Z,14.60
2019-04-23T23:41:48.971Z,14.60
2019-04-23T23:45:06.956Z,14.50
2019-04-23T23:47:59.201Z,14.50
2019-04-23T23:51:00.435Z,14.50
2019-04-23T23:54:02.030Z,14.50
2019-04-23T23:57:07.006Z,14.50
